Time;durP1;ratioP1;P1;durP2;ratioP2;P2;SDS_P1;SDS_P2;PMS_P1;PMS_P2;Temp;Humidity;BMP_temperature;BMP_pressure;BME280_temperature;BME280_humidity;BME280_pressure;Samples;Min_cycle;Max_cycle;Signal;HPM_P1;HPM_P2
2024/02/09 00:00:57;;;;;;;2.47;2.28;;;1.80;99.90;;;;;;5101093;28;20035;-63
2024/02/09 00:03:26;;;;;;;2.17;1.92;;;1.80;99.90;;;;;;5079997;28;20047;-63
2024/02/09 00:05:53;;;;;;;2.20;2.00;;;1.70;99.90;;;;;;5116716;27;20043;-63
2024/02/09 00:08:20;;;;;;;2.45;2.25;;;1.80;99.90;;;;;;5099224;28;20397;-63
2024/02/09 00:10:49;;;;;;;2.42;2.22;;;1.80;99.90;;;;;;5101349;28;20087;-63
2024/02/09 00:13:15;;;;;;;2.17;1.98;;;1.80;99.90;;;;;;5094564;28;20075;-63
2024/02/09 00:15:42;;;;;;;1.88;1.77;;;1.80;99.90;;;;;;5080906;28;20040;-63
2024/02/09 00:18:10;;;;;;;2.13;1.92;;;1.80;99.90;;;;;;5096983;28;20486;-63
2024/02/09 00:20:36;;;;;;;2.28;2.08;;;1.80;99.90;;;;;;5096134;28;20317;-63
2024/02/09 00:23:03;;;;;;;2.22;2.03;;;1.80;99.90;;;;;;5100056;28;20032;-63
2024/02/09 00:25:29;;;;;;;2.55;2.35;;;1.80;99.90;;;;;;5097626;28;20102;-63
2024/02/09 00:27:55;;;;;;;3.35;2.80;;;1.80;99.90;;;;;;5078765;28;20054;-63
2024/02/09 00:30:21;;;;;;;2.63;2.42;;;1.80;99.90;;;;;;5079459;28;20031;-63
2024/02/09 00:32:47;;;;;;;2.50;2.30;;;1.80;99.90;;;;;;5097488;28;20074;-63
2024/02/09 00:35:12;;;;;;;2.88;2.67;;;1.80;99.90;;;;;;5096411;28;20039;-62
2024/02/09 00:37:38;;;;;;;3.10;2.85;;;1.80;99.90;;;;;;5093207;28;20032;-63
2024/02/09 00:40:08;;;;;;;2.90;2.70;;;1.80;99.90;;;;;;5095038;28;20036;-63
2024/02/09 00:42:34;;;;;;;2.83;2.63;;;1.80;99.90;;;;;;5113535;27;20039;-63
2024/02/09 00:45:01;;;;;;;2.72;2.53;;;1.80;99.90;;;;;;5078674;28;20035;-63
2024/02/09 00:47:27;;;;;;;3.30;3.00;;;1.80;99.90;;;;;;5096562;28;20409;-63
2024/02/09 00:49:54;;;;;;;2.90;2.70;;;1.80;99.90;;;;;;5111324;27;20074;-63
2024/02/09 00:52:20;;;;;;;3.45;3.15;;;1.80;99.90;;;;;;5079962;28;20097;-63
2024/02/09 00:54:46;;;;;;;3.50;3.20;;;1.80;99.90;;;;;;5079864;28;20047;-63
2024/02/09 00:57:12;;;;;;;3.38;3.08;;;1.90;99.90;;;;;;5081996;28;20442;-63
2024/02/09 00:59:38;;;;;;;3.47;3.17;;;1.90;99.90;;;;;;5099396;28;20032;-63
2024/02/09 01:02:07;;;;;;;4.63;2.88;;;1.90;99.90;;;;;;5076073;28;20084;-63
2024/02/09 01:04:36;;;;;;;3.40;3.10;;;1.90;99.90;;;;;;5096679;28;20308;-63
2024/02/09 01:07:03;;;;;;;3.30;3.00;;;1.90;99.90;;;;;;5096171;28;20032;-63
2024/02/09 01:09:30;;;;;;;3.72;3.42;;;1.80;99.90;;;;;;5078689;28;20504;-63
2024/02/09 01:11:55;;;;;;;3.45;3.15;;;1.90;99.90;;;;;;5083313;28;20053;-63
2024/02/09 02:44:46;;;;;;;5.30;4.78;;;2.20;99.90;;;;;;5083589;28;20040;-63
2024/02/09 02:47:12;;;;;;;5.25;4.75;;;2.20;99.90;;;;;;5105864;27;20051;-62
2024/02/09 03:06:05;;;;;;;4.63;4.18;;;2.40;99.90;;;;;;5094392;28;20056;-62
2024/02/09 03:08:31;;;;;;;4.38;3.97;;;2.40;99.90;;;;;;5093797;28;20071;-63
2024/02/09 03:10:56;;;;;;;5.00;4.50;;;2.30;99.90;;;;;;5077735;28;20477;-62
2024/02/09 03:13:22;;;;;;;5.65;4.95;;;2.30;99.90;;;;;;5097567;28;20115;-62
2024/02/09 03:15:48;;;;;;;5.20;4.70;;;2.40;99.90;;;;;;5074626;28;20127;-62
2024/02/09 03:18:17;;;;;;;4.72;4.13;;;2.40;99.90;;;;;;5088310;28;20432;-62
2024/02/09 03:20:43;;;;;;;6.72;4.63;;;2.40;99.90;;;;;;5075209;28;20123;-62
2024/02/09 03:23:09;;;;;;;5.78;4.70;;;2.40;99.90;;;;;;5095631;28;20074;-63
2024/02/09 03:25:35;;;;;;;4.70;4.20;;;2.40;99.90;;;;;;5080931;28;20459;-62
2024/02/09 03:28:00;;;;;;;4.85;4.30;;;2.50;99.90;;;;;;5097243;28;20055;-62
2024/02/09 03:30:26;;;;;;;5.35;4.20;;;2.50;99.90;;;;;;5093340;28;20075;-62
2024/02/09 03:32:53;;;;;;;5.72;4.35;;;2.50;99.90;;;;;;5076291;28;20059;-62
2024/02/09 03:35:19;;;;;;;5.80;4.85;;;2.50;99.90;;;;;;5094671;28;20032;-62
2024/02/09 03:37:44;;;;;;;4.55;3.60;;;2.50;99.90;;;;;;5079583;28;20028;-62
2024/02/09 03:40:13;;;;;;;5.13;3.80;;;2.50;99.90;;;;;;5098782;28;20042;-62
2024/02/09 03:42:40;;;;;;;5.53;4.40;;;2.60;99.90;;;;;;5096862;28;20040;-62
2024/02/09 03:45:06;;;;;;;6.00;4.65;;;2.60;99.90;;;;;;5113886;28;20052;-62
2024/02/09 03:47:33;;;;;;;6.82;4.70;;;2.50;99.90;;;;;;5074359;28;20050;-62
2024/02/09 03:49:58;;;;;;;6.35;4.32;;;2.60;99.90;;;;;;5094741;28;20039;-62
2024/02/09 03:52:24;;;;;;;6.50;4.63;;;2.60;99.90;;;;;;5074212;28;20044;-62
2024/02/09 03:54:55;;;;;;;6.60;4.38;;;2.60;99.90;;;;;;5096519;28;20041;-62
2024/02/09 03:57:21;;;;;;;6.18;4.18;;;2.60;99.90;;;;;;5094370;28;20060;-62
2024/02/09 03:59:47;;;;;;;6.38;4.10;;;2.70;99.90;;;;;;5077741;28;20124;-62
2024/02/09 04:02:13;;;;;;;6.53;4.65;;;2.70;99.90;;;;;;5107689;27;20541;-62
2024/02/09 04:04:39;;;;;;;7.80;4.70;;;2.70;99.90;;;;;;5077591;28;20363;-62
2024/02/09 04:07:08;;;;;;;6.55;4.65;;;2.70;99.90;;;;;;5078570;28;20079;-62
2024/02/09 04:09:38;;;;;;;6.57;4.57;;;2.80;99.90;;;;;;5094899;28;20039;-62
2024/02/09 04:12:04;;;;;;;8.40;5.45;;;2.80;99.90;;;;;;5098173;28;20032;-62
2024/02/09 04:14:31;;;;;;;7.30;5.05;;;2.80;99.90;;;;;;5077679;28;20044;-62
2024/02/09 04:16:58;;;;;;;9.13;5.63;;;2.80;99.90;;;;;;5064029;28;20049;-62
2024/02/09 04:19:25;;;;;;;8.32;5.60;;;2.80;99.90;;;;;;5092915;28;20040;-62
2024/02/09 04:21:51;;;;;;;9.98;6.22;;;2.80;99.90;;;;;;5079600;28;20044;-62
2024/02/09 04:24:19;;;;;;;10.18;6.43;;;3.10;99.90;;;;;;5074998;28;20036;-62
2024/02/09 04:26:48;;;;;;;10.00;6.60;;;2.90;99.90;;;;;;5109105;28;20035;-62
2024/02/09 04:29:15;;;;;;;8.13;5.72;;;2.90;99.90;;;;;;5094323;28;20032;-62
2024/02/09 04:31:44;;;;;;;8.65;5.40;;;3.00;99.90;;;;;;5092783;28;20043;-62
2024/02/09 04:34:11;;;;;;;9.43;5.95;;;3.00;99.90;;;;;;5090895;28;20435;-62
2024/02/09 04:36:41;;;;;;;9.65;5.57;;;3.00;99.90;;;;;;5097967;28;20044;-62
2024/02/09 04:39:10;;;;;;;9.85;6.18;;;3.00;99.90;;;;;;5074053;28;20054;-62
2024/02/09 04:41:48;;;;;;;11.13;6.13;;;3.10;99.90;;;;;;5079923;28;20047;-62
2024/02/09 04:44:14;;;;;;;11.13;6.30;;;3.10;99.90;;;;;;5079601;28;20074;-62
2024/02/09 04:46:40;;;;;;;9.75;6.15;;;3.20;99.90;;;;;;5100666;28;20092;-62
2024/02/09 04:49:09;;;;;;;10.18;6.43;;;3.00;99.90;;;;;;5081528;28;20044;-62
2024/02/09 04:51:45;;;;;;;13.50;7.03;;;3.10;99.90;;;;;;5083946;28;20579;-62
2024/02/09 04:54:11;;;;;;;12.07;7.30;;;3.10;99.90;;;;;;5111871;27;20047;-62
2024/02/09 04:56:38;;;;;;;10.73;6.45;;;3.10;99.90;;;;;;5098005;28;20698;-62
2024/02/09 04:59:07;;;;;;;11.45;6.90;;;3.20;99.90;;;;;;5097832;28;20031;-62
2024/02/09 05:01:37;;;;;;;10.63;6.55;;;3.10;99.90;;;;;;5097424;28;20031;-62
2024/02/09 05:04:06;;;;;;;8.70;6.22;;;3.20;99.90;;;;;;5093507;28;20031;-62
2024/02/09 05:06:32;;;;;;;11.98;6.82;;;3.20;99.90;;;;;;5095854;28;20117;-62
2024/02/09 05:08:58;;;;;;;12.75;7.65;;;3.20;99.90;;;;;;5078965;28;20040;-62
2024/02/09 05:11:28;;;;;;;9.93;6.53;;;3.30;99.90;;;;;;5097561;28;20123;-62
2024/02/09 05:13:57;;;;;;;13.77;7.03;;;3.30;99.90;;;;;;5097106;28;20093;-62
2024/02/09 05:16:23;;;;;;;11.77;7.63;;;3.30;99.90;;;;;;5097299;28;20044;-62
2024/02/09 05:18:50;;;;;;;12.10;7.07;;;3.40;99.90;;;;;;5076332;28;20127;-62
2024/02/09 05:21:17;;;;;;;14.38;7.72;;;3.50;99.90;;;;;;5098010;28;20044;-62
2024/02/09 05:23:42;;;;;;;14.30;8.52;;;3.50;99.90;;;;;;5097907;28;20050;-62
2024/02/09 05:26:09;;;;;;;14.95;9.23;;;3.60;99.90;;;;;;5080245;28;20126;-62
2024/02/09 05:28:39;;;;;;;15.88;9.30;;;3.50;99.90;;;;;;5093598;28;20039;-62
2024/02/09 05:31:14;;;;;;;16.55;9.48;;;3.60;99.90;;;;;;5088855;28;20054;-62
2024/02/09 05:33:39;;;;;;;18.27;9.83;;;3.60;99.90;;;;;;5092136;28;20074;-62
2024/02/09 05:36:05;;;;;;;18.27;9.55;;;3.60;99.90;;;;;;5075381;28;20164;-62
2024/02/09 05:38:35;;;;;;;18.83;10.93;;;3.60;99.90;;;;;;5094062;28;20036;-62
2024/02/09 05:41:02;;;;;;;19.45;10.73;;;3.70;99.90;;;;;;5090772;28;20040;-62
2024/02/09 05:43:29;;;;;;;18.65;10.55;;;3.70;99.90;;;;;;5090148;28;20153;-62
2024/02/09 05:45:54;;;;;;;20.45;11.13;;;3.80;99.90;;;;;;5088837;28;20068;-62
2024/02/09 05:48:21;;;;;;;20.08;11.00;;;3.70;99.90;;;;;;5074492;28;20511;-62
2024/02/09 05:50:47;;;;;;;21.98;11.45;;;3.80;99.90;;;;;;5092908;28;20404;-62
2024/02/09 05:53:13;;;;;;;20.00;11.40;;;3.80;99.90;;;;;;5096519;28;20040;-62
2024/02/09 05:55:39;;;;;;;22.80;11.80;;;3.80;99.90;;;;;;5094802;28;20705;-62
2024/02/09 05:58:04;;;;;;;21.75;11.32;;;3.80;99.90;;;;;;5070730;28;20048;-62
2024/02/09 06:00:30;;;;;;;20.92;11.43;;;3.80;99.90;;;;;;5091645;28;20615;-62
2024/02/09 06:02:56;;;;;;;18.58;10.98;;;3.90;99.90;;;;;;5091443;28;20161;-62
2024/02/09 06:05:22;;;;;;;22.48;12.23;;;4.00;99.90;;;;;;5106091;27;21107;-62
2024/02/09 06:07:51;;;;;;;18.85;10.80;;;4.00;99.90;;;;;;5091937;28;20510;-62
2024/02/09 06:10:17;;;;;;;20.65;10.55;;;4.00;99.90;;;;;;5072005;28;20517;-62
2024/02/09 06:12:45;;;;;;;16.63;9.13;;;4.10;99.90;;;;;;5089262;28;20300;-62
2024/02/09 06:15:11;;;;;;;19.23;10.18;;;4.10;99.90;;;;;;5095434;28;20036;-62
2024/02/09 06:17:38;;;;;;;21.33;10.68;;;4.10;99.90;;;;;;5098968;28;20030;-62
2024/02/09 06:20:05;;;;;;;17.00;9.38;;;4.10;99.90;;;;;;5093284;28;20470;-62
2024/02/09 06:22:30;;;;;;;18.58;10.32;;;4.10;99.90;;;;;;5078210;28;20145;-62
2024/02/09 06:24:57;;;;;;;20.60;11.02;;;4.20;99.90;;;;;;5075984;28;20473;-62
2024/02/09 06:27:27;;;;;;;20.70;10.52;;;4.20;99.90;;;;;;5091688;28;20500;-62
2024/02/09 06:29:54;;;;;;;21.35;10.23;;;4.20;99.90;;;;;;5109679;27;20035;-62
2024/02/09 06:32:24;;;;;;;19.92;10.20;;;4.30;99.90;;;;;;5092252;28;20039;-62
2024/02/09 06:34:52;;;;;;;19.27;9.98;;;4.20;99.90;;;;;;5097075;28;20028;-62
2024/02/09 06:37:18;;;;;;;19.30;10.52;;;4.30;99.90;;;;;;5093306;28;20036;-63
2024/02/09 06:39:46;;;;;;;22.85;10.57;;;4.30;99.90;;;;;;5093666;28;20051;-62
2024/02/09 06:42:11;;;;;;;19.80;9.57;;;4.30;99.90;;;;;;5097963;28;20036;-62
2024/02/09 06:44:42;;;;;;;22.40;10.07;;;4.40;99.90;;;;;;5097493;28;20035;-62
2024/02/09 06:47:10;;;;;;;18.88;9.98;;;4.40;99.90;;;;;;5109324;27;20096;-62
2024/02/09 06:49:36;;;;;;;25.95;11.93;;;4.50;99.90;;;;;;5092231;28;20376;-62
2024/02/09 06:52:01;;;;;;;24.00;12.02;;;4.50;99.90;;;;;;5078889;28;20048;-62
2024/02/09 06:54:27;;;;;;;29.42;13.30;;;4.50;99.90;;;;;;5078191;28;20040;-62
2024/02/09 06:56:55;;;;;;;23.33;11.48;;;4.50;99.90;;;;;;5077326;28;20052;-62
2024/02/09 06:59:23;;;;;;;25.42;11.38;;;4.60;99.90;;;;;;5073477;28;20051;-62
2024/02/09 07:01:49;;;;;;;30.55;12.60;;;4.60;99.90;;;;;;5075839;28;20046;-63
2024/02/09 07:04:18;;;;;;;28.85;13.35;;;4.70;99.90;;;;;;5074977;28;20032;-62
2024/02/09 07:06:47;;;;;;;27.60;13.13;;;4.70;99.90;;;;;;5079839;28;20047;-62
2024/02/09 07:09:18;;;;;;;29.45;13.73;;;4.70;99.90;;;;;;5095187;28;20381;-62
2024/02/09 07:11:47;;;;;;;34.40;14.02;;;4.80;99.90;;;;;;5091141;28;20040;-62
2024/02/09 07:14:14;;;;;;;38.53;16.00;;;4.80;99.90;;;;;;5091859;28;20398;-63
2024/02/09 07:16:40;;;;;;;40.40;15.05;;;4.90;99.90;;;;;;5087843;28;20046;-63
2024/02/09 07:19:09;;;;;;;39.72;17.20;;;4.90;99.90;;;;;;5070896;28;20520;-63
2024/02/09 07:21:39;;;;;;;43.15;16.98;;;5.00;99.90;;;;;;5092153;28;20047;-63
2024/02/09 07:24:05;;;;;;;46.20;17.45;;;5.10;99.90;;;;;;5095480;28;20362;-63
2024/02/09 07:26:31;;;;;;;39.75;17.02;;;5.10;99.90;;;;;;5092971;28;20055;-62
2024/02/09 07:28:57;;;;;;;44.90;18.80;;;5.20;99.90;;;;;;5089728;28;20066;-62
2024/02/09 07:31:24;;;;;;;47.97;18.73;;;5.30;99.90;;;;;;5078268;28;20036;-62
2024/02/09 07:33:50;;;;;;;58.92;20.20;;;5.30;99.90;;;;;;5099920;28;20412;-62
2024/02/09 07:36:16;;;;;;;59.53;20.33;;;5.40;99.90;;;;;;5094083;28;20066;-63
2024/02/09 07:38:42;;;;;;;48.58;20.00;;;5.40;99.90;;;;;;5075603;28;20040;-63
2024/02/09 07:41:11;;;;;;;50.33;19.63;;;5.40;99.90;;;;;;5096216;28;20039;-63
2024/02/09 07:43:37;;;;;;;54.42;21.33;;;5.50;99.90;;;;;;5077282;28;20115;-63
2024/02/09 07:46:04;;;;;;;65.97;20.73;;;5.60;99.90;;;;;;5096935;28;20135;-63
2024/02/09 07:48:30;;;;;;;59.95;21.17;;;5.70;99.90;;;;;;5074822;28;20056;-63
2024/02/09 07:51:02;;;;;;;77.65;22.98;;;5.70;99.90;;;;;;5073843;28;20048;-63
2024/02/09 07:53:30;;;;;;;67.15;23.92;;;5.70;99.90;;;;;;5076212;28;20044;-63
2024/02/09 07:55:57;;;;;;;67.00;22.48;;;5.80;99.90;;;;;;5093460;28;20075;-63
2024/02/09 07:58:25;;;;;;;66.05;22.83;;;5.90;99.90;;;;;;5077987;28;20044;-63
2024/02/09 08:00:54;;;;;;;71.75;22.30;;;6.00;99.90;;;;;;5094448;28;20051;-63
2024/02/09 08:03:23;;;;;;;70.50;22.90;;;6.10;99.90;;;;;;5079812;28;20074;-63
2024/02/09 08:05:49;;;;;;;67.70;23.15;;;6.10;99.90;;;;;;5086555;28;20119;-63
2024/02/09 08:08:15;;;;;;;71.80;24.42;;;6.20;99.90;;;;;;5093979;28;20108;-63
2024/02/09 08:10:40;;;;;;;80.28;25.17;;;6.20;99.90;;;;;;5060163;28;20047;-63
2024/02/09 08:13:08;;;;;;;73.75;24.42;;;6.20;99.90;;;;;;5092558;28;20101;-63
2024/02/09 08:15:34;;;;;;;72.07;22.88;;;6.30;99.90;;;;;;5099966;28;20382;-63
2024/02/09 08:18:01;;;;;;;71.65;22.88;;;6.30;99.90;;;;;;5081037;28;20027;-63
2024/02/09 08:20:27;;;;;;;59.05;22.30;;;6.30;99.90;;;;;;5097151;28;20036;-63
2024/02/09 08:22:53;;;;;;;44.65;20.88;;;6.30;99.90;;;;;;5096858;28;20437;-63
2024/02/09 08:25:19;;;;;;;55.55;21.95;;;6.40;99.90;;;;;;5100926;28;20097;-63
2024/02/09 08:27:46;;;;;;;75.22;22.15;;;6.40;99.90;;;;;;5099902;28;20043;-63
2024/02/09 08:30:12;;;;;;;43.92;18.98;;;6.50;99.90;;;;;;5075353;28;20505;-63
2024/02/09 08:32:39;;;;;;;28.52;15.98;;;6.60;99.90;;;;;;5100183;28;20039;-63
2024/02/09 08:35:06;;;;;;;34.08;17.27;;;6.80;99.90;;;;;;5064856;28;20036;-63
2024/02/09 08:37:31;;;;;;;34.30;16.67;;;6.90;99.90;;;;;;5097240;28;20155;-63
2024/02/09 08:39:58;;;;;;;29.83;16.50;;;7.10;99.90;;;;;;5099717;28;20111;-63
2024/02/09 08:42:24;;;;;;;27.65;14.40;;;7.20;99.90;;;;;;5100042;28;20035;-63
2024/02/09 08:44:49;;;;;;;24.80;13.77;;;7.30;99.90;;;;;;5098612;28;20032;-63
2024/02/09 08:47:15;;;;;;;23.98;12.77;;;7.50;99.90;;;;;;5100104;28;20111;-63
2024/02/09 08:49:42;;;;;;;25.67;12.18;;;7.70;99.90;;;;;;5078756;28;20042;-63
2024/02/09 08:52:08;;;;;;;22.80;10.90;;;7.80;99.90;;;;;;5093225;28;20507;-63
2024/02/09 08:54:33;;;;;;;18.10;11.38;;;8.00;99.90;;;;;;5095403;28;20032;-63
2024/02/09 08:56:59;;;;;;;20.90;10.60;;;8.10;99.90;;;;;;5094681;28;20374;-63
2024/02/09 08:59:25;;;;;;;17.48;10.88;;;8.20;99.90;;;;;;5091421;28;20035;-63
2024/02/09 09:01:51;;;;;;;21.60;11.10;;;8.30;99.90;;;;;;5116245;27;20050;-63
2024/02/09 09:04:18;;;;;;;15.85;9.70;;;8.40;99.90;;;;;;5095062;28;20044;-63
2024/02/09 09:06:44;;;;;;;16.13;10.43;;;8.40;99.90;;;;;;5112057;27;20044;-63
2024/02/09 09:09:11;;;;;;;20.10;10.02;;;8.40;99.90;;;;;;5080715;28;20401;-63
2024/02/09 09:11:36;;;;;;;16.55;8.85;;;8.50;99.90;;;;;;5095661;28;20051;-63
2024/02/09 09:14:03;;;;;;;14.77;9.02;;;8.60;99.90;;;;;;5071786;28;20043;-63
2024/02/09 09:16:29;;;;;;;14.80;9.32;;;8.60;99.90;;;;;;5091934;28;20087;-63
2024/02/09 09:18:54;;;;;;;11.75;7.90;;;8.80;99.90;;;;;;5098150;28;20470;-63
2024/02/09 09:21:20;;;;;;;14.93;8.48;;;8.70;99.90;;;;;;5092841;28;20036;-63
2024/02/09 09:23:45;;;;;;;12.05;7.85;;;8.70;99.90;;;;;;5100212;28;20042;-63
2024/02/09 09:26:11;;;;;;;14.07;7.93;;;8.80;99.90;;;;;;5077903;28;20089;-63
2024/02/09 09:28:37;;;;;;;12.45;8.10;;;8.80;99.90;;;;;;5094487;28;20126;-63
2024/02/09 09:31:04;;;;;;;16.65;9.07;;;8.80;99.90;;;;;;5097431;28;20044;-63
2024/02/09 09:33:31;;;;;;;14.93;8.25;;;8.80;99.90;;;;;;5097808;28;20040;-63
2024/02/09 09:35:57;;;;;;;13.95;7.95;;;9.00;99.90;;;;;;5099278;28;20051;-64
2024/02/09 09:38:22;;;;;;;13.57;7.68;;;9.00;99.90;;;;;;5078959;28;20039;-63
2024/02/09 09:40:53;;;;;;;11.57;6.75;;;9.00;99.90;;;;;;5076118;28;20044;-63
2024/02/09 09:43:22;;;;;;;13.32;7.20;;;9.00;99.90;;;;;;5096727;28;20073;-63
2024/02/09 09:45:59;;;;;;;9.88;6.30;;;9.10;99.90;;;;;;5100490;28;20058;-64
2024/02/09 09:48:26;;;;;;;15.45;7.10;;;9.10;99.90;;;;;;5096364;28;20040;-63
2024/02/09 09:50:54;;;;;;;12.50;6.32;;;9.10;99.90;;;;;;5097658;28;20044;-63
2024/02/09 09:53:38;;;;;;;11.23;6.15;;;9.20;99.90;;;;;;5080079;28;20033;-64
2024/02/09 09:56:07;;;;;;;9.98;6.25;;;9.20;99.90;;;;;;5095467;28;20032;-63
2024/02/09 09:58:35;;;;;;;13.02;6.32;;;9.30;99.90;;;;;;5094160;28;20035;-63
2024/02/09 10:01:05;;;;;;;11.40;6.03;;;9.30;99.90;;;;;;5073882;28;20385;-63
2024/02/09 10:03:31;;;;;;;11.95;6.15;;;9.40;99.90;;;;;;5100755;27;20044;-64
2024/02/09 10:05:58;;;;;;;10.27;6.38;;;9.40;99.90;;;;;;5078875;28;20051;-63
2024/02/09 10:08:23;;;;;;;9.10;6.32;;;9.40;99.90;;;;;;5113061;27;20043;-63
2024/02/09 10:10:50;;;;;;;13.32;6.13;;;9.40;99.90;;;;;;5089603;28;20028;-63
2024/02/09 10:13:16;;;;;;;11.82;6.05;;;9.40;99.90;;;;;;5076464;28;20466;-63
2024/02/09 10:15:42;;;;;;;9.45;5.82;;;9.40;99.90;;;;;;5091081;28;20487;-63
2024/02/09 10:18:11;;;;;;;11.18;6.10;;;9.40;99.90;;;;;;5082529;28;20040;-63
2024/02/09 10:20:40;;;;;;;11.13;6.45;;;9.40;99.90;;;;;;5094800;28;20453;-63
2024/02/09 10:23:06;;;;;;;11.05;5.80;;;9.40;99.90;;;;;;5094287;28;20039;-64
2024/02/09 10:25:32;;;;;;;10.35;6.38;;;9.50;99.90;;;;;;5087944;28;20040;-63
2024/02/09 10:27:59;;;;;;;12.45;6.35;;;9.50;99.90;;;;;;5090529;28;20034;-63
2024/02/09 10:30:29;;;;;;;13.13;5.95;;;9.50;99.90;;;;;;5096847;28;20089;-64
2024/02/09 10:32:55;;;;;;;8.90;6.13;;;9.60;99.90;;;;;;5075045;28;20494;-63
2024/02/09 10:35:22;;;;;;;11.43;5.45;;;9.60;99.90;;;;;;5076883;28;20521;-63
2024/02/09 10:37:48;;;;;;;12.88;6.07;;;9.60;99.90;;;;;;5074154;28;20082;-63
2024/02/09 10:40:14;;;;;;;8.40;5.75;;;9.70;99.90;;;;;;5075752;28;20027;-63
2024/02/09 10:42:40;;;;;;;10.35;5.95;;;9.70;99.90;;;;;;5093075;28;20047;-63
2024/02/09 10:45:10;;;;;;;9.52;5.50;;;9.70;99.90;;;;;;5076371;28;20032;-63
2024/02/09 10:47:39;;;;;;;10.48;5.57;;;9.80;99.90;;;;;;5094611;28;20047;-64
2024/02/09 10:50:06;;;;;;;10.88;6.53;;;9.80;99.90;;;;;;5056592;28;20043;-64
2024/02/09 10:52:42;;;;;;;7.90;5.10;;;9.90;99.90;;;;;;5093139;28;20044;-63
2024/02/09 10:55:09;;;;;;;12.07;5.15;;;9.80;99.90;;;;;;5098257;28;20436;-64
2024/02/09 10:57:36;;;;;;;10.80;5.40;;;9.90;99.90;;;;;;5089314;28;20113;-63
2024/02/09 11:00:09;;;;;;;7.90;4.93;;;9.90;99.90;;;;;;5073441;28;20082;-63
2024/02/09 11:02:36;;;;;;;10.43;4.43;;;9.90;99.90;;;;;;5069837;28;20036;-63
2024/02/09 11:05:03;;;;;;;8.05;4.93;;;9.90;99.90;;;;;;5072610;28;20027;-64
2024/02/09 11:07:30;;;;;;;8.52;4.50;;;9.90;99.90;;;;;;5094268;28;20123;-64
2024/02/09 11:09:58;;;;;;;8.75;4.63;;;9.90;99.90;;;;;;5092796;28;20146;-64
2024/02/09 11:12:24;;;;;;;6.25;4.65;;;10.00;99.90;;;;;;5079002;28;20043;-64
2024/02/09 11:14:49;;;;;;;7.70;5.38;;;10.10;99.90;;;;;;5078413;28;20052;-64
2024/02/09 11:17:18;;;;;;;11.20;5.03;;;10.10;99.90;;;;;;5080259;28;20035;-64
2024/02/09 11:19:44;;;;;;;8.15;4.55;;;10.20;99.90;;;;;;5106505;27;20051;-64
2024/02/09 11:22:11;;;;;;;6.43;3.90;;;10.30;99.90;;;;;;5075414;28;20035;-64
2024/02/09 11:24:38;;;;;;;7.45;4.45;;;10.40;99.90;;;;;;5075231;28;20580;-64
2024/02/09 11:27:08;;;;;;;8.18;4.18;;;10.50;99.90;;;;;;5092756;28;20459;-64
2024/02/09 11:29:34;;;;;;;7.57;3.83;;;10.50;99.90;;;;;;5093287;28;20067;-64
2024/02/09 11:32:05;;;;;;;10.10;4.30;;;10.60;99.90;;;;;;5089155;28;20223;-64
2024/02/09 11:34:34;;;;;;;7.32;3.63;;;10.60;99.90;;;;;;5091186;28;20142;-64
2024/02/09 11:37:00;;;;;;;9.55;3.75;;;10.60;99.90;;;;;;5108093;28;20040;-63
2024/02/09 11:39:31;;;;;;;4.38;3.40;;;10.60;99.90;;;;;;5105248;28;20066;-64
2024/02/09 11:41:57;;;;;;;10.48;3.95;;;10.70;99.90;;;;;;5075633;28;20044;-63
2024/02/09 11:44:23;;;;;;;6.25;3.00;;;10.70;99.90;;;;;;5078412;28;20058;-63
2024/02/09 11:46:53;;;;;;;6.70;3.17;;;10.70;99.90;;;;;;5079385;28;20051;-64
2024/02/09 11:49:23;;;;;;;5.78;3.15;;;10.70;99.90;;;;;;5092473;28;20032;-63
2024/02/09 11:52:08;;;;;;;5.68;3.25;;;10.80;99.90;;;;;;5101159;28;20038;-64
2024/02/09 11:54:34;;;;;;;6.43;2.75;;;10.70;99.90;;;;;;5093250;28;20176;-64
2024/02/09 11:57:00;;;;;;;8.15;3.20;;;10.70;99.90;;;;;;5111398;27;20092;-64
2024/02/09 11:59:28;;;;;;;6.03;3.08;;;10.70;99.90;;;;;;5063492;28;20077;-63
2024/02/09 12:01:55;;;;;;;6.35;2.50;;;10.70;99.90;;;;;;5095133;28;20040;-63
2024/02/09 12:04:21;;;;;;;5.18;2.58;;;10.80;99.90;;;;;;5073197;28;20047;-63
2024/02/09 12:06:47;;;;;;;5.18;2.75;;;10.80;99.90;;;;;;5110668;27;20048;-63
2024/02/09 12:09:13;;;;;;;6.82;2.90;;;10.80;99.90;;;;;;5086641;28;20086;-63
2024/02/09 12:11:39;;;;;;;5.63;2.75;;;10.80;99.90;;;;;;5099641;28;20059;-63
2024/02/09 12:14:05;;;;;;;6.68;2.50;;;10.90;99.90;;;;;;5095300;28;20712;-63
2024/02/09 12:16:31;;;;;;;7.43;2.75;;;10.90;99.90;;;;;;5092749;28;20060;-63
2024/02/09 12:18:59;;;;;;;6.00;2.38;;;11.00;99.90;;;;;;5077516;28;20131;-63
2024/02/09 12:21:25;;;;;;;3.35;2.38;;;11.10;99.90;;;;;;5100228;28;20059;-63
2024/02/09 12:23:52;;;;;;;6.55;3.58;;;11.10;99.90;;;;;;5099371;28;20040;-63
2024/02/09 12:26:21;;;;;;;7.45;2.63;;;11.50;99.90;;;;;;5066438;28;20079;-63
2024/02/09 12:28:48;;;;;;;7.10;2.38;;;11.30;99.90;;;;;;5073375;28;20046;-63
2024/02/09 12:31:19;;;;;;;7.15;2.55;;;11.30;99.90;;;;;;5073965;28;20482;-63
2024/02/09 12:33:49;;;;;;;7.43;3.15;;;11.30;99.90;;;;;;5095875;28;20035;-63
2024/02/09 12:36:19;;;;;;;6.28;2.65;;;11.40;99.90;;;;;;5114163;27;20543;-63
2024/02/09 12:38:45;;;;;;;5.60;2.00;;;11.40;99.90;;;;;;5098627;28;20103;-63
2024/02/09 12:41:13;;;;;;;6.85;2.35;;;11.50;99.90;;;;;;5077410;28;20047;-63
2024/02/09 12:43:39;;;;;;;5.40;2.67;;;11.40;99.90;;;;;;5095282;28;20062;-63
2024/02/09 12:46:07;;;;;;;7.40;2.38;;;11.50;99.90;;;;;;5080422;28;20552;-62
2024/02/09 12:48:36;;;;;;;6.18;2.55;;;11.40;99.90;;;;;;5082008;28;20135;-63
2024/02/09 12:51:04;;;;;;;4.80;2.08;;;11.40;99.90;;;;;;5074008;28;20071;-62
2024/02/09 12:53:30;;;;;;;6.28;2.00;;;11.30;99.90;;;;;;5082370;28;20039;-63
2024/02/09 12:55:57;;;;;;;5.38;2.58;;;11.30;99.90;;;;;;5112181;27;20039;-63
2024/02/09 12:58:23;;;;;;;4.82;2.15;;;11.30;99.90;;;;;;5093877;28;20040;-63
2024/02/09 13:00:49;;;;;;;9.30;3.00;;;11.20;99.90;;;;;;5092962;28;20146;-63
2024/02/09 13:03:15;;;;;;;5.93;2.78;;;11.30;99.90;;;;;;5098656;28;20036;-63
2024/02/09 13:05:41;;;;;;;4.90;2.60;;;11.20;99.90;;;;;;5092445;28;20442;-63
2024/02/09 13:08:09;;;;;;;4.40;2.40;;;11.10;99.90;;;;;;5115462;27;20055;-63
2024/02/09 13:10:35;;;;;;;7.65;2.85;;;11.10;99.90;;;;;;5077827;28;20132;-63
2024/02/09 13:13:07;;;;;;;5.43;2.42;;;11.10;99.90;;;;;;5078749;28;20051;-62
2024/02/09 13:15:37;;;;;;;6.28;2.00;;;11.10;99.90;;;;;;5080711;28;20413;-63
2024/02/09 13:18:06;;;;;;;5.43;2.00;;;11.10;99.90;;;;;;5078722;28;20101;-62
2024/02/09 13:20:32;;;;;;;6.50;2.22;;;11.00;99.90;;;;;;5072039;28;20078;-63
2024/02/09 13:22:59;;;;;;;6.15;1.88;;;11.10;99.90;;;;;;5091153;28;20452;-63
2024/02/09 13:25:32;;;;;;;6.65;2.85;;;11.00;99.90;;;;;;5090699;28;20035;-63
2024/02/09 13:27:59;;;;;;;7.03;2.17;;;11.00;99.90;;;;;;5073461;28;20119;-62
2024/02/09 13:30:25;;;;;;;4.35;2.08;;;11.00;99.90;;;;;;5075560;28;20059;-63
2024/02/09 13:32:50;;;;;;;4.97;2.30;;;11.00;99.90;;;;;;5070537;28;20128;-62
2024/02/09 13:35:17;;;;;;;5.15;2.03;;;11.00;99.90;;;;;;5110498;27;20044;-63
2024/02/09 13:37:48;;;;;;;2.38;1.52;;;11.00;99.90;;;;;;5111859;27;20044;-63
2024/02/09 13:40:15;;;;;;;4.72;1.42;;;11.00;99.90;;;;;;5078621;28;20044;-63
2024/02/09 13:42:47;;;;;;;4.28;1.80;;;11.00;99.90;;;;;;5095531;28;20045;-62
2024/02/09 13:45:26;;;;;;;3.40;1.80;;;11.00;99.90;;;;;;5105766;27;20108;-63
2024/02/09 13:47:52;;;;;;;4.75;2.22;;;11.10;99.90;;;;;;5071282;28;20078;-63
2024/02/09 13:50:23;;;;;;;7.70;1.92;;;11.00;99.90;;;;;;5072219;28;20477;-63
2024/02/09 13:52:50;;;;;;;3.83;1.50;;;11.00;99.90;;;;;;5109209;27;20055;-62
2024/02/09 13:55:17;;;;;;;3.63;1.85;;;11.00;99.90;;;;;;5098612;28;20051;-63
2024/02/09 13:57:51;;;;;;;3.80;2.00;;;11.00;99.90;;;;;;5076648;28;20040;-63
2024/02/09 14:00:17;;;;;;;5.30;1.92;;;11.00;99.90;;;;;;5092717;28;20997;-63
2024/02/09 14:02:44;;;;;;;2.85;2.03;;;11.00;99.90;;;;;;5093406;28;20122;-63
2024/02/09 14:05:10;;;;;;;2.63;2.22;;;11.10;99.90;;;;;;5097998;28;20054;-63
2024/02/09 14:07:40;;;;;;;4.82;2.17;;;11.10;99.90;;;;;;5088385;28;20044;-63
2024/02/09 14:10:11;;;;;;;3.70;2.17;;;11.10;99.90;;;;;;5072158;28;20520;-63
2024/02/09 14:12:38;;;;;;;3.22;2.30;;;11.10;99.90;;;;;;5049872;28;20047;-63
2024/02/09 14:15:04;;;;;;;5.22;2.33;;;11.10;99.90;;;;;;5095133;28;20042;-63
2024/02/09 14:17:33;;;;;;;3.97;2.05;;;11.10;99.90;;;;;;5108105;27;20047;-63
2024/02/09 14:19:59;;;;;;;3.75;1.73;;;11.20;99.90;;;;;;5076516;28;20436;-63
2024/02/09 14:22:26;;;;;;;2.55;1.92;;;11.10;99.90;;;;;;5060961;28;20188;-63
2024/02/09 14:24:52;;;;;;;4.30;2.15;;;11.10;99.90;;;;;;5092011;28;20558;-63
2024/02/09 14:27:18;;;;;;;5.60;1.85;;;11.10;99.90;;;;;;5071560;28;20075;-63
2024/02/09 14:29:46;;;;;;;2.63;1.65;;;11.10;99.90;;;;;;5074296;28;20588;-63
2024/02/09 14:32:13;;;;;;;5.07;1.80;;;11.20;99.90;;;;;;5075878;28;20604;-63
2024/02/09 14:34:41;;;;;;;6.28;1.95;;;11.10;99.90;;;;;;5092078;28;20040;-63